createdAt,value
2024-02-12T00:00:32.953Z,1.90
2024-02-12T00:01:36.955Z,2.20
2024-02-12T00:02:40.692Z,2.03
2024-02-12T00:03:43.127Z,2.00
2024-02-12T00:04:51.140Z,1.93
2024-02-12T00:05:53.811Z,2.03
2024-02-12T00:06:59.947Z,1.90
2024-02-12T00:08:05.884Z,1.80
2024-02-12T00:09:08.294Z,2.07
2024-02-12T00:10:14.602Z,2.20
2024-02-12T00:11:17.070Z,1.93
2024-02-12T00:12:19.464Z,1.90
2024-02-12T00:13:23.293Z,2.13
2024-02-12T00:14:25.740Z,2.00
2024-02-12T00:15:28.597Z,1.93
2024-02-12T00:16:31.127Z,1.90
2024-02-12T00:17:33.671Z,2.00
2024-02-12T00:18:36.412Z,2.10
2024-02-12T00:19:39.185Z,1.90
2024-02-12T00:20:42.697Z,2.00
2024-02-12T00:21:46.922Z,2.23
2024-02-12T00:22:50.724Z,1.90
2024-02-12T00:23:54.402Z,2.03
2024-02-12T00:24:58.067Z,1.90
2024-02-12T00:26:01.127Z,2.07
2024-02-12T00:27:04.702Z,1.90
2024-02-12T00:28:09.024Z,1.90
2024-02-12T00:29:14.739Z,1.97
2024-02-12T00:30:17.222Z,2.00
2024-02-12T00:31:19.544Z,2.00
2024-02-12T00:32:22.548Z,2.30
2024-02-12T00:33:25.551Z,1.93
2024-02-12T00:34:29.820Z,2.30
2024-02-12T00:35:33.457Z,2.00
2024-02-12T00:36:35.838Z,1.90
2024-02-12T00:37:39.321Z,2.10
2024-02-12T00:38:41.699Z,2.00
2024-02-12T00:39:44.079Z,1.80
2024-02-12T00:40:46.541Z,2.20
2024-02-12T00:41:51.089Z,2.40
2024-02-12T00:42:56.120Z,1.97
2024-02-12T00:43:58.747Z,2.20
2024-02-12T00:45:01.516Z,2.03
2024-02-12T00:46:03.864Z,2.07
2024-02-12T00:47:06.337Z,2.07
2024-02-12T00:48:09.593Z,2.07
2024-02-12T00:49:13.122Z,2.07
2024-02-12T00:50:16.634Z,1.97
2024-02-12T00:51:19.001Z,1.97
2024-02-12T00:52:24.871Z,2.27
2024-02-12T00:53:27.380Z,2.30
2024-02-12T00:54:31.476Z,2.00
2024-02-12T00:55:34.253Z,2.00
2024-02-12T00:56:38.805Z,2.13
2024-02-12T00:57:41.649Z,1.90
2024-02-12T00:58:46.318Z,1.87
2024-02-12T00:59:51.257Z,1.90
2024-02-12T01:00:53.599Z,2.10
2024-02-12T01:01:56.463Z,1.80
2024-02-12T01:02:58.764Z,1.80
2024-02-12T01:04:01.079Z,2.30
2024-02-12T01:05:03.526Z,2.03
2024-02-12T01:06:06.075Z,2.03
2024-02-12T01:07:08.350Z,1.80
2024-02-12T01:08:10.986Z,2.20
2024-02-12T01:09:14.427Z,1.97
2024-02-12T01:10:17.801Z,2.00
2024-02-12T01:11:20.146Z,1.90
2024-02-12T01:12:24.948Z,2.00
2024-02-12T01:13:28.418Z,2.20
2024-02-12T01:14:30.865Z,2.07
2024-02-12T01:15:33.243Z,1.70
2024-02-12T01:16:35.740Z,2.17
2024-02-12T01:17:42.572Z,1.80
2024-02-12T01:18:47.365Z,2.00
2024-02-12T01:19:52.516Z,1.80
2024-02-12T01:20:55.145Z,2.03
2024-02-12T01:21:57.570Z,1.63
2024-02-12T01:23:00.066Z,2.00
2024-02-12T01:24:03.222Z,2.00
2024-02-12T01:25:06.025Z,1.80
2024-02-12T01:26:09.738Z,1.80
2024-02-12T01:27:14.355Z,2.00
2024-02-12T01:28:16.856Z,2.00
2024-02-12T01:29:19.353Z,2.00
2024-02-12T01:30:21.641Z,1.80
2024-02-12T01:31:23.986Z,1.87
2024-02-12T01:32:27.410Z,2.00
2024-02-12T01:33:31.954Z,1.90
2024-02-12T01:34:36.198Z,1.80
2024-02-12T01:35:39.890Z,1.80
2024-02-12T01:36:42.959Z,1.90
2024-02-12T01:37:45.277Z,2.10
2024-02-12T01:38:47.593Z,1.80
2024-02-12T01:39:50.693Z,1.80
2024-02-12T01:40:53.054Z,1.90
2024-02-12T01:41:57.105Z,1.80
2024-02-12T01:42:59.444Z,1.60
2024-02-12T01:44:02.937Z,1.87
2024-02-12T01:45:13.958Z,1.97
2024-02-12T01:46:16.875Z,1.90
2024-02-12T01:47:25.083Z,1.90
2024-02-12T01:48:31.815Z,1.90
2024-02-12T01:49:34.605Z,1.73
2024-02-12T01:50:37.468Z,1.73
2024-02-12T01:51:41.722Z,1.80
2024-02-12T01:52:50.859Z,1.80
2024-02-12T01:53:54.855Z,1.80
2024-02-12T01:55:02.240Z,1.80
2024-02-12T01:56:07.952Z,1.90
2024-02-12T01:57:11.124Z,1.90
2024-02-12T01:58:17.737Z,1.90
2024-02-12T01:59:22.296Z,1.80
2024-02-12T02:00:27.214Z,1.80
2024-02-12T02:01:44.983Z,1.73
2024-02-12T02:02:48.032Z,1.60
2024-02-12T02:03:52.382Z,1.80
2024-02-12T02:04:55.399Z,1.80
2024-02-12T02:05:58.290Z,1.73
2024-02-12T02:07:00.701Z,2.03
2024-02-12T02:08:03.222Z,1.90
2024-02-12T02:09:08.232Z,2.03
2024-02-12T02:10:10.927Z,1.70
2024-02-12T02:11:13.563Z,1.93
2024-02-12T02:12:16.619Z,1.70
2024-02-12T02:13:18.953Z,1.93
2024-02-12T02:14:21.473Z,1.87
2024-02-12T02:15:23.905Z,1.80
2024-02-12T02:16:26.444Z,1.77
2024-02-12T02:17:28.844Z,1.70
2024-02-12T02:18:32.743Z,2.00
2024-02-12T02:19:35.665Z,1.80
2024-02-12T02:20:38.290Z,1.80
2024-02-12T02:21:40.748Z,2.10
2024-02-12T02:22:43.108Z,1.83
2024-02-12T02:23:45.711Z,1.70
2024-02-12T02:24:48.095Z,1.63
2024-02-12T02:25:51.134Z,1.90
2024-02-12T02:26:54.420Z,1.90
2024-02-12T02:27:56.996Z,1.73
2024-02-12T02:29:00.571Z,1.97
2024-02-12T02:30:09.786Z,1.60
2024-02-12T02:31:12.230Z,1.90
2024-02-12T02:32:15.371Z,1.90
2024-02-12T02:33:18.376Z,1.50
2024-02-12T02:34:20.920Z,1.80
2024-02-12T02:35:23.394Z,1.87
2024-02-12T02:36:25.861Z,2.00
2024-02-12T02:37:28.219Z,1.60
2024-02-12T02:38:30.850Z,1.70
2024-02-12T02:39:33.282Z,1.60
2024-02-12T02:40:36.373Z,1.70
2024-02-12T02:41:44.082Z,1.67
2024-02-12T02:42:48.344Z,1.50
2024-02-12T02:43:51.227Z,1.90
2024-02-12T02:44:55.451Z,1.80
2024-02-12T02:46:00.817Z,1.80
2024-02-12T02:47:04.183Z,1.70
2024-02-12T02:48:07.846Z,1.60
2024-02-12T02:49:12.189Z,1.63
2024-02-12T02:50:14.602Z,1.60
2024-02-12T02:51:24.919Z,1.70
2024-02-12T02:52:27.576Z,1.60
2024-02-12T02:53:30.140Z,1.70
2024-02-12T02:54:34.994Z,1.70
2024-02-12T02:55:37.371Z,1.80
2024-02-12T02:56:39.926Z,1.73
2024-02-12T02:57:42.300Z,1.70
2024-02-12T02:58:44.617Z,1.50
2024-02-12T02:59:48.178Z,1.80
2024-02-12T03:00:50.624Z,1.57
2024-02-12T03:01:53.352Z,1.70
2024-02-12T03:02:55.778Z,1.50
2024-02-12T03:03:58.933Z,1.60
2024-02-12T03:05:02.795Z,1.50
2024-02-12T03:06:06.730Z,1.70
2024-02-12T03:07:12.110Z,1.60
2024-02-12T03:08:15.576Z,1.50
2024-02-12T03:09:18.075Z,1.47
2024-02-12T03:10:20.429Z,1.47
2024-02-12T03:11:27.271Z,1.67
2024-02-12T03:12:32.373Z,1.60
2024-02-12T03:13:38.455Z,1.70
2024-02-12T03:14:41.747Z,1.67
2024-02-12T03:15:45.413Z,1.70
2024-02-12T03:16:47.727Z,1.67
2024-02-12T03:17:50.206Z,1.60
2024-02-12T03:18:53.833Z,1.40
2024-02-12T03:19:57.611Z,1.63
2024-02-12T03:20:59.952Z,1.70
2024-02-12T03:22:02.268Z,1.50
2024-02-12T03:23:04.787Z,1.30
2024-02-12T03:24:07.145Z,1.60
2024-02-12T03:25:12.460Z,1.60
2024-02-12T03:26:18.616Z,1.50
2024-02-12T03:27:21.849Z,1.47
2024-02-12T03:28:24.140Z,1.57
2024-02-12T03:29:28.117Z,1.50
2024-02-12T03:30:30.704Z,1.43
2024-02-12T03:31:32.960Z,1.50
2024-02-12T03:32:36.142Z,1.40
2024-02-12T03:33:38.728Z,1.50
2024-02-12T03:34:41.311Z,1.60
2024-02-12T03:35:43.817Z,1.40
2024-02-12T03:36:47.225Z,1.60
2024-02-12T03:37:49.548Z,1.50
2024-02-12T03:38:51.870Z,1.50
2024-02-12T03:39:54.431Z,1.60
2024-02-12T03:40:56.738Z,1.73
2024-02-12T03:41:59.051Z,1.37
2024-02-12T03:43:05.888Z,1.57
2024-02-12T03:44:11.377Z,1.60
2024-02-12T03:45:16.998Z,1.60
2024-02-12T03:46:22.416Z,1.40
2024-02-12T03:47:39.835Z,1.40
2024-02-12T03:49:00.929Z,1.80
2024-02-12T03:50:21.940Z,1.70
2024-02-12T03:51:49.758Z,1.50
2024-02-12T03:53:27.420Z,1.50
2024-02-12T03:54:48.249Z,1.63
2024-02-12T03:56:09.220Z,1.60
2024-02-12T03:57:30.312Z,1.60
2024-02-12T03:58:51.250Z,1.70
2024-02-12T03:59:54.522Z,1.60
2024-02-12T04:00:57.042Z,1.50
2024-02-12T04:02:00.879Z,1.60
2024-02-12T04:03:03.887Z,1.40
2024-02-12T04:04:08.071Z,1.60
2024-02-12T04:05:10.856Z,1.70
2024-02-12T04:06:14.133Z,1.50
2024-02-12T04:07:17.141Z,1.70
2024-02-12T04:08:19.457Z,1.70
2024-02-12T04:09:22.432Z,1.60
2024-02-12T04:10:28.225Z,1.60
2024-02-12T04:11:30.871Z,1.70
2024-02-12T04:12:34.381Z,1.50
2024-02-12T04:13:38.337Z,1.50
2024-02-12T04:14:44.160Z,1.40
2024-02-12T04:15:46.769Z,1.60
2024-02-12T04:16:53.384Z,1.50
2024-02-12T04:17:55.884Z,1.50
2024-02-12T04:18:58.358Z,1.60
2024-02-12T04:20:01.179Z,1.57
2024-02-12T04:21:10.906Z,1.40
2024-02-12T04:22:16.116Z,1.50
2024-02-12T04:23:20.641Z,1.60
2024-02-12T04:24:24.778Z,1.40
2024-02-12T04:25:27.347Z,1.50
2024-02-12T04:26:29.883Z,1.40
2024-02-12T04:27:34.859Z,1.60
2024-02-12T04:28:41.299Z,1.30
2024-02-12T04:29:43.797Z,1.33
2024-02-12T04:30:46.482Z,1.37
2024-02-12T04:31:49.457Z,1.50
2024-02-12T04:32:51.755Z,1.50
2024-02-12T04:33:54.773Z,1.53
2024-02-12T04:34:57.864Z,1.30
2024-02-12T04:36:02.962Z,1.40
2024-02-12T04:37:08.021Z,1.63
2024-02-12T04:38:10.608Z,1.43
2024-02-12T04:39:16.136Z,1.40
2024-02-12T04:40:18.754Z,1.37
2024-02-12T04:41:21.274Z,1.60
2024-02-12T04:42:23.794Z,1.50
2024-02-12T04:43:26.235Z,1.40
2024-02-12T04:44:28.649Z,1.63
2024-02-12T04:45:32.233Z,1.73
2024-02-12T04:46:37.916Z,1.50
2024-02-12T04:47:41.183Z,1.53
2024-02-12T04:48:44.127Z,1.40
2024-02-12T04:49:46.614Z,1.50
2024-02-12T04:50:49.124Z,1.50
2024-02-12T04:51:54.369Z,1.50
2024-02-12T04:52:57.987Z,1.57
2024-02-12T04:54:00.994Z,1.50
2024-02-12T04:55:03.391Z,1.30
2024-02-12T04:56:07.790Z,1.50
2024-02-12T04:57:10.145Z,1.50
2024-02-12T04:58:12.618Z,1.60
2024-02-12T04:59:19.916Z,1.40
2024-02-12T05:00:22.426Z,1.40
2024-02-12T05:01:28.133Z,1.40
2024-02-12T05:02:33.384Z,1.30
2024-02-12T05:03:37.630Z,1.40
2024-02-12T05:04:40.149Z,1.53
2024-02-12T05:05:43.489Z,1.33
2024-02-12T05:06:47.229Z,1.40
2024-02-12T05:07:49.619Z,1.40
2024-02-12T05:08:52.562Z,1.40
2024-02-12T05:09:55.340Z,1.47
2024-02-12T05:10:58.602Z,1.40
2024-02-12T05:12:01.049Z,1.50
2024-02-12T05:13:03.443Z,1.30
2024-02-12T05:14:05.848Z,1.40
2024-02-12T05:15:10.855Z,1.40
2024-02-12T05:16:15.247Z,1.27
2024-02-12T05:17:25.200Z,1.40
2024-02-12T05:18:46.478Z,1.27
2024-02-12T05:20:07.735Z,1.30
2024-02-12T05:21:32.500Z,1.33
2024-02-12T05:22:35.402Z,1.30
2024-02-12T05:23:38.651Z,1.30
2024-02-12T05:24:40.968Z,1.20
2024-02-12T05:25:44.994Z,1.40
2024-02-12T05:26:47.679Z,1.30
2024-02-12T05:27:50.172Z,1.40
2024-02-12T05:28:53.297Z,1.30
2024-02-12T05:29:58.665Z,1.20
2024-02-12T05:31:00.971Z,1.37
2024-02-12T05:32:03.409Z,1.30
2024-02-12T05:33:07.961Z,1.17
2024-02-12T05:34:10.406Z,1.20
2024-02-12T05:35:13.766Z,1.30
2024-02-12T05:36:18.865Z,1.13
2024-02-12T05:37:21.241Z,1.20
2024-02-12T05:38:23.942Z,1.30
2024-02-12T05:39:26.687Z,1.50
2024-02-12T05:40:28.995Z,1.33
2024-02-12T05:41:31.357Z,1.30
2024-02-12T05:42:33.759Z,1.20
2024-02-12T05:43:36.536Z,1.23
2024-02-12T05:44:39.498Z,1.30
2024-02-12T05:45:42.506Z,1.10
2024-02-12T05:46:46.320Z,1.50
2024-02-12T05:47:49.177Z,1.30
2024-02-12T05:48:51.683Z,1.20
2024-02-12T05:49:54.984Z,1.40
2024-02-12T05:50:58.451Z,1.30
2024-02-12T05:52:00.831Z,1.20
2024-02-12T05:53:04.185Z,1.40
2024-02-12T05:54:06.666Z,1.37
2024-02-12T05:55:09.339Z,1.30
2024-02-12T05:56:11.848Z,1.50
2024-02-12T05:57:15.732Z,1.60
2024-02-12T05:58:18.105Z,1.20
2024-02-12T05:59:21.086Z,1.40
2024-02-12T06:00:23.663Z,1.40
2024-02-12T06:01:26.749Z,1.40
2024-02-12T06:02:29.197Z,1.30
2024-02-12T06:03:32.120Z,1.47
2024-02-12T06:04:34.525Z,1.47
2024-02-12T06:05:37.522Z,1.40
2024-02-12T06:06:41.444Z,1.37
2024-02-12T06:07:43.894Z,1.17
2024-02-12T06:08:46.258Z,1.20
2024-02-12T06:09:48.901Z,1.30
2024-02-12T06:10:51.440Z,1.23
2024-02-12T06:11:55.037Z,1.30
2024-02-12T06:12:58.643Z,1.30
2024-02-12T06:14:01.124Z,1.30
2024-02-12T06:15:03.619Z,1.30
2024-02-12T06:16:06.176Z,1.40
2024-02-12T06:17:09.938Z,1.30
2024-02-12T06:18:12.401Z,1.20
2024-02-12T06:19:14.859Z,1.40
2024-02-12T06:20:17.278Z,1.37
2024-02-12T06:21:19.676Z,1.40
2024-02-12T06:22:22.097Z,1.40
2024-02-12T06:23:26.481Z,1.30
2024-02-12T06:24:28.942Z,1.27
2024-02-12T06:25:31.302Z,1.10
2024-02-12T06:26:34.944Z,1.17
2024-02-12T06:27:37.483Z,1.20
2024-02-12T06:28:41.813Z,1.13
2024-02-12T06:29:45.388Z,1.23
2024-02-12T06:30:47.776Z,1.10
2024-02-12T06:31:50.119Z,1.37
2024-02-12T06:32:52.609Z,1.27
2024-02-12T06:33:55.467Z,1.20
2024-02-12T06:34:57.909Z,1.40
2024-02-12T06:36:03.556Z,1.30
2024-02-12T06:37:05.967Z,1.33
2024-02-12T06:38:08.397Z,1.30
2024-02-12T06:39:10.749Z,1.20
2024-02-12T06:40:14.459Z,1.20
2024-02-12T06:41:16.904Z,1.30
2024-02-12T06:42:19.250Z,1.30
2024-02-12T06:43:21.743Z,1.40
2024-02-12T06:44:24.591Z,1.47
2024-02-12T06:45:26.854Z,1.33
2024-02-12T06:46:29.197Z,1.33
2024-02-12T06:47:32.004Z,1.30
2024-02-12T06:48:34.539Z,1.50
2024-02-12T06:49:36.903Z,1.40
2024-02-12T06:50:39.568Z,1.40
2024-02-12T06:51:42.223Z,1.27
2024-02-12T06:52:45.404Z,1.37
2024-02-12T06:53:47.735Z,1.40
2024-02-12T06:54:50.346Z,1.53
2024-02-12T06:55:54.039Z,1.40
2024-02-12T06:56:56.395Z,1.43
2024-02-12T06:57:58.728Z,2.57
2024-02-12T06:59:01.061Z,1.90
2024-02-12T07:00:04.938Z,1.90
2024-02-12T07:01:07.373Z,1.70
2024-02-12T07:02:10.634Z,2.10
2024-02-12T07:03:13.328Z,1.93
2024-02-12T07:04:15.972Z,1.60
2024-02-12T07:05:19.821Z,1.80
2024-02-12T07:06:23.680Z,1.40
2024-02-12T07:07:26.057Z,1.50
2024-02-12T07:08:28.431Z,1.63
2024-02-12T07:09:30.717Z,1.30
2024-02-12T07:10:33.119Z,1.30
2024-02-12T07:11:35.894Z,1.20
2024-02-12T07:12:39.982Z,1.10
2024-02-12T07:13:43.527Z,1.20
2024-02-12T07:14:46.279Z,1.20
2024-02-12T07:15:48.660Z,1.40
2024-02-12T07:16:51.295Z,1.40
2024-02-12T07:17:53.852Z,1.30
2024-02-12T07:18:56.629Z,1.27
2024-02-12T07:19:59.114Z,1.47
2024-02-12T07:21:01.495Z,1.30
2024-02-12T07:22:04.613Z,1.30
2024-02-12T07:23:07.716Z,1.20
2024-02-12T07:24:10.971Z,1.30
2024-02-12T07:25:13.380Z,1.20
2024-02-12T07:26:15.776Z,1.47
2024-02-12T07:27:21.275Z,1.30
2024-02-12T07:28:23.579Z,1.40
2024-02-12T07:29:25.915Z,1.20
2024-02-12T07:30:28.387Z,1.20
2024-02-12T07:31:30.963Z,1.00
2024-02-12T07:32:34.004Z,1.20
2024-02-12T07:33:37.788Z,1.10
2024-02-12T07:34:40.645Z,1.10
2024-02-12T07:35:45.075Z,1.10
2024-02-12T07:36:47.585Z,1.40
2024-02-12T07:37:50.583Z,1.40
2024-02-12T07:38:52.905Z,1.10
2024-02-12T07:39:55.316Z,1.30
2024-02-12T07:40:57.718Z,1.27
2024-02-12T07:42:01.190Z,1.27
2024-02-12T07:43:03.943Z,1.20
2024-02-12T07:44:06.528Z,1.20
2024-02-12T07:45:12.303Z,1.10
2024-02-12T07:46:16.088Z,1.20
2024-02-12T07:47:20.626Z,1.40
2024-02-12T07:48:23.457Z,1.20
2024-02-12T07:49:25.922Z,1.20
2024-02-12T07:50:28.688Z,1.30
2024-02-12T07:51:31.103Z,1.20
2024-02-12T07:52:34.015Z,1.03
2024-02-12T07:53:36.795Z,1.17
2024-02-12T07:54:41.982Z,1.10
2024-02-12T07:55:44.334Z,1.30
2024-02-12T07:56:49.754Z,1.20
2024-02-12T07:57:52.060Z,1.13
2024-02-12T07:58:55.079Z,1.00
2024-02-12T08:00:01.021Z,1.10
2024-02-12T08:01:03.447Z,0.90
2024-02-12T08:02:05.824Z,1.10
2024-02-12T08:03:08.193Z,1.10
2024-02-12T08:04:10.605Z,1.00
2024-02-12T08:05:13.830Z,1.00
2024-02-12T08:06:16.910Z,1.20
2024-02-12T08:07:22.460Z,1.30
2024-02-12T08:08:27.194Z,1.20
2024-02-12T08:09:30.606Z,1.00
2024-02-12T08:10:33.117Z,1.13
2024-02-12T08:11:35.477Z,1.10
2024-02-12T08:12:37.843Z,1.00
2024-02-12T08:13:41.229Z,1.20
2024-02-12T08:14:44.063Z,1.00
2024-02-12T08:15:46.409Z,1.03
2024-02-12T08:16:48.790Z,1.20
2024-02-12T08:17:54.418Z,1.30
2024-02-12T08:18:58.471Z,1.30
2024-02-12T08:20:05.738Z,1.30
2024-02-12T08:21:08.300Z,1.60
2024-02-12T08:22:11.746Z,1.87
2024-02-12T08:23:14.469Z,2.20
2024-02-12T08:24:18.428Z,2.20
2024-02-12T08:25:21.679Z,2.27
2024-02-12T08:26:24.325Z,2.30
2024-02-12T08:27:28.229Z,2.37
2024-02-12T08:28:30.673Z,2.20
2024-02-12T08:29:33.081Z,2.63
2024-02-12T08:30:35.493Z,2.10
2024-02-12T08:31:37.834Z,1.70
2024-02-12T08:32:40.965Z,1.37
2024-02-12T08:33:43.521Z,1.20
2024-02-12T08:34:46.458Z,1.10
2024-02-12T08:35:49.398Z,1.10
2024-02-12T08:36:52.803Z,1.20
2024-02-12T08:37:57.347Z,0.97
2024-02-12T08:38:59.626Z,1.03
2024-02-12T08:40:02.093Z,1.10
2024-02-12T08:41:04.804Z,0.97
2024-02-12T08:42:07.595Z,1.00
2024-02-12T08:43:09.869Z,1.20
2024-02-12T08:44:12.233Z,1.10
2024-02-12T08:45:14.863Z,1.07
2024-02-12T08:46:17.503Z,1.00
2024-02-12T08:47:19.951Z,1.00
2024-02-12T08:48:22.343Z,1.00
2024-02-12T08:49:24.687Z,0.90
2024-02-12T08:50:27.225Z,0.90
2024-02-12T08:51:29.633Z,1.10
2024-02-12T08:52:32.981Z,1.03
2024-02-12T08:53:35.812Z,1.27
2024-02-12T08:54:38.924Z,1.10
2024-02-12T08:55:41.290Z,1.10
2024-02-12T08:56:43.658Z,1.00
2024-02-12T08:57:46.148Z,1.20
2024-02-12T08:58:48.916Z,1.07
2024-02-12T08:59:51.230Z,1.00
2024-02-12T09:00:54.997Z,1.10
2024-02-12T09:01:57.431Z,1.20
2024-02-12T09:02:59.855Z,1.47
2024-02-12T09:04:02.272Z,1.07
2024-02-12T09:05:10.494Z,1.10
2024-02-12T09:06:14.559Z,1.30
2024-02-12T09:07:17.092Z,1.00
2024-02-12T09:08:21.016Z,1.03
2024-02-12T09:09:23.366Z,1.10
2024-02-12T09:10:25.743Z,1.03
2024-02-12T09:11:28.304Z,1.23
2024-02-12T09:12:39.956Z,1.20
2024-02-12T09:13:50.205Z,1.10
2024-02-12T09:14:53.514Z,1.10
2024-02-12T09:15:55.805Z,1.30
2024-02-12T09:16:58.377Z,1.10
2024-02-12T09:18:01.097Z,1.20
2024-02-12T09:19:05.000Z,0.97
2024-02-12T09:20:08.238Z,1.10
2024-02-12T09:21:10.608Z,1.00
2024-02-12T09:22:13.165Z,0.97
2024-02-12T09:23:15.442Z,1.00
2024-02-12T09:24:19.510Z,0.90
2024-02-12T09:25:23.918Z,1.00
2024-02-12T09:26:29.758Z,1.20
2024-02-12T09:27:32.266Z,1.10
2024-02-12T09:28:34.829Z,1.10
2024-02-12T09:29:37.150Z,1.20
2024-02-12T09:30:40.455Z,1.30
2024-02-12T09:31:44.159Z,1.00
2024-02-12T09:32:49.453Z,1.10
2024-02-12T09:33:52.604Z,1.10
2024-02-12T09:34:57.302Z,1.10
2024-02-12T09:35:59.651Z,1.00
2024-02-12T09:37:01.992Z,1.10
2024-02-12T09:38:04.755Z,1.20
2024-02-12T09:39:07.200Z,1.10
2024-02-12T09:40:10.553Z,1.10
2024-02-12T09:41:16.321Z,1.33
2024-02-12T09:42:19.790Z,1.10
2024-02-12T09:43:23.269Z,1.17
2024-02-12T09:44:30.112Z,1.10
2024-02-12T09:45:33.276Z,1.00
2024-02-12T09:46:38.562Z,1.20
2024-02-12T09:47:45.388Z,1.30
2024-02-12T09:48:49.341Z,1.40
2024-02-12T09:49:54.495Z,1.40
2024-02-12T09:50:57.856Z,1.10
2024-02-12T09:52:02.133Z,1.07
2024-02-12T09:53:06.669Z,1.20
2024-02-12T09:54:09.660Z,1.20
2024-02-12T09:55:13.431Z,1.20
2024-02-12T09:56:16.147Z,1.30
2024-02-12T09:57:19.557Z,1.20
2024-02-12T09:58:21.886Z,1.33
2024-02-12T09:59:25.313Z,1.20
2024-02-12T10:00:27.692Z,1.20
2024-02-12T10:01:30.849Z,1.20
2024-02-12T10:02:37.246Z,1.20
2024-02-12T10:03:40.826Z,1.17
2024-02-12T10:04:44.152Z,1.20
2024-02-12T10:05:47.073Z,1.27
2024-02-12T10:06:58.525Z,1.23
2024-02-12T10:08:03.166Z,1.30
2024-02-12T10:09:08.518Z,1.00
2024-02-12T10:10:14.040Z,1.13
2024-02-12T10:11:22.064Z,1.20
2024-02-12T10:12:24.500Z,1.27
2024-02-12T10:13:28.583Z,1.20
2024-02-12T10:14:34.918Z,1.20
2024-02-12T10:15:37.265Z,1.10
2024-02-12T10:16:40.430Z,1.30
2024-02-12T10:17:44.442Z,1.40
2024-02-12T10:18:46.908Z,1.40
2024-02-12T10:19:49.246Z,1.30
2024-02-12T10:20:51.637Z,1.27
2024-02-12T10:21:55.534Z,1.15
2024-02-12T10:23:00.859Z,1.30
2024-02-12T10:24:03.326Z,1.27
2024-02-12T10:25:06.446Z,1.40
2024-02-12T10:26:09.083Z,1.20
2024-02-12T10:27:11.409Z,1.60
2024-02-12T10:28:14.970Z,1.30
2024-02-12T10:29:19.566Z,1.58
2024-02-12T10:30:22.588Z,1.40
2024-02-12T10:31:26.048Z,1.40
2024-02-12T10:32:30.156Z,1.50
2024-02-12T10:33:35.603Z,1.10
2024-02-12T10:34:39.688Z,1.30
2024-02-12T10:35:48.888Z,1.27
2024-02-12T10:36:56.268Z,1.20
2024-02-12T10:37:58.914Z,1.20
2024-02-12T10:39:05.260Z,1.30
2024-02-12T10:40:14.488Z,1.35
2024-02-12T10:41:30.317Z,1.35
2024-02-12T10:42:38.220Z,1.40
2024-02-12T10:43:41.824Z,1.42
2024-02-12T10:44:45.610Z,1.40
2024-02-12T10:45:50.840Z,1.17
2024-02-12T10:46:53.401Z,1.30
2024-02-12T10:47:56.409Z,1.27
2024-02-12T10:48:59.981Z,1.48
2024-02-12T10:50:03.073Z,1.45
2024-02-12T10:51:06.951Z,1.35
2024-02-12T10:52:11.073Z,1.48
2024-02-12T10:53:17.159Z,1.40
2024-02-12T10:54:19.623Z,1.50
2024-02-12T10:55:22.049Z,1.40
2024-02-12T10:56:24.538Z,1.48
2024-02-12T10:57:27.071Z,1.45
2024-02-12T10:58:29.494Z,1.50
2024-02-12T10:59:31.774Z,1.50
2024-02-12T11:00:35.747Z,1.48
2024-02-12T11:01:40.473Z,1.42
2024-02-12T11:02:46.845Z,1.50
2024-02-12T11:03:50.695Z,1.63
2024-02-12T11:04:58.974Z,1.60
2024-02-12T11:06:02.038Z,1.30
2024-02-12T11:07:20.078Z,1.70
2024-02-12T11:08:25.021Z,1.60
2024-02-12T11:09:32.699Z,1.45
2024-02-12T11:10:36.561Z,1.70
2024-02-12T11:11:49.188Z,1.60
2024-02-12T11:12:51.507Z,1.63
2024-02-12T11:14:05.173Z,1.42
2024-02-12T11:15:14.111Z,1.50
2024-02-12T11:16:18.510Z,1.60
2024-02-12T11:17:24.552Z,1.85
2024-02-12T11:18:27.833Z,1.75
2024-02-12T11:19:32.549Z,1.60
2024-02-12T11:20:34.930Z,1.57
2024-02-12T11:21:37.614Z,1.77
2024-02-12T11:22:40.023Z,1.83
2024-02-12T11:23:43.587Z,1.80
2024-02-12T11:24:51.112Z,1.63
2024-02-12T11:25:57.739Z,1.50
2024-02-12T11:27:01.146Z,1.50
2024-02-12T11:28:04.115Z,1.50
2024-02-12T11:29:10.126Z,1.65
2024-02-12T11:30:12.706Z,1.63
2024-02-12T11:31:17.674Z,1.52
2024-02-12T11:32:25.813Z,1.60
2024-02-12T11:33:29.534Z,1.60
2024-02-12T11:34:33.788Z,1.70
2024-02-12T11:35:39.145Z,1.70
2024-02-12T11:36:42.121Z,1.73
2024-02-12T11:37:46.960Z,1.55
2024-02-12T11:38:52.043Z,1.55
2024-02-12T11:40:01.068Z,1.70
2024-02-12T11:41:07.037Z,1.40
2024-02-12T11:42:11.207Z,1.70
2024-02-12T11:43:13.612Z,1.70
2024-02-12T11:44:16.748Z,1.30
2024-02-12T11:45:21.818Z,1.52
2024-02-12T11:46:25.588Z,1.50
2024-02-12T11:47:28.242Z,1.50
2024-02-12T11:48:31.369Z,1.55
2024-02-12T11:49:34.030Z,1.40
2024-02-12T11:50:36.492Z,1.50
2024-02-12T11:51:40.376Z,1.50
2024-02-12T11:52:42.745Z,1.40
2024-02-12T11:53:45.139Z,1.38
2024-02-12T11:54:47.541Z,1.42
2024-02-12T11:55:50.381Z,1.20
2024-02-12T11:56:52.747Z,1.30
2024-02-12T11:57:55.084Z,1.40
2024-02-12T11:58:58.941Z,1.40
2024-02-12T12:00:02.197Z,1.38
2024-02-12T12:01:14.172Z,1.40
2024-02-12T12:02:16.586Z,1.40
2024-02-12T12:03:19.345Z,1.50
2024-02-12T12:04:22.180Z,1.40
2024-02-12T12:05:28.271Z,1.45
2024-02-12T12:06:32.503Z,1.60
2024-02-12T12:07:39.917Z,1.48
2024-02-12T12:08:43.087Z,1.35
2024-02-12T12:09:45.694Z,1.48
2024-02-12T12:10:49.219Z,1.45
2024-02-12T12:11:52.008Z,1.40
2024-02-12T12:13:00.419Z,1.40
2024-02-12T12:14:04.439Z,1.38
2024-02-12T12:15:08.828Z,1.50
2024-02-12T12:16:11.943Z,1.30
2024-02-12T12:17:30.266Z,1.50
2024-02-12T12:18:36.924Z,1.30
2024-02-12T12:19:39.524Z,1.45
2024-02-12T12:20:42.144Z,1.50
2024-02-12T12:21:44.667Z,1.40
2024-02-12T12:22:47.035Z,1.40
2024-02-12T12:23:49.487Z,1.50
2024-02-12T12:24:51.886Z,1.60
2024-02-12T12:25:56.330Z,1.50
2024-02-12T12:26:58.754Z,1.52
2024-02-12T12:28:01.154Z,1.38
2024-02-12T12:29:04.812Z,1.38
2024-02-12T12:30:16.140Z,1.50
2024-02-12T12:31:18.534Z,1.45
2024-02-12T12:32:21.353Z,1.58
2024-02-12T12:33:25.487Z,1.77
2024-02-12T12:34:27.994Z,1.42
2024-02-12T12:35:30.468Z,1.60
2024-02-12T12:36:33.096Z,1.73
2024-02-12T12:37:39.958Z,1.50
2024-02-12T12:38:43.323Z,1.58
2024-02-12T12:39:45.767Z,1.60
2024-02-12T12:40:49.049Z,1.67
2024-02-12T12:41:52.379Z,1.50
2024-02-12T12:42:58.916Z,1.73
2024-02-12T12:44:01.443Z,1.63
2024-02-12T12:45:03.955Z,1.73
2024-02-12T12:46:09.076Z,1.50
2024-02-12T12:47:12.981Z,1.80
2024-02-12T12:48:16.632Z,1.70
2024-02-12T12:49:21.977Z,1.83
2024-02-12T12:50:26.322Z,1.80
2024-02-12T12:51:28.791Z,1.73
2024-02-12T12:52:31.686Z,2.20
2024-02-12T12:53:34.253Z,1.98
2024-02-12T12:54:38.395Z,2.10
2024-02-12T12:55:40.684Z,1.80
2024-02-12T12:56:43.085Z,1.90
2024-02-12T12:57:46.032Z,1.90
2024-02-12T12:58:50.830Z,1.90
2024-02-12T12:59:54.304Z,2.03
2024-02-12T13:00:56.767Z,1.90
2024-02-12T13:01:59.302Z,1.73
2024-02-12T13:03:02.821Z,2.05
2024-02-12T13:04:05.281Z,1.80
2024-02-12T13:05:08.667Z,1.92
2024-02-12T13:06:11.581Z,1.75
2024-02-12T13:07:15.273Z,2.50
2024-02-12T13:08:21.864Z,2.10
2024-02-12T13:09:25.041Z,2.38
2024-02-12T13:10:32.867Z,2.00
2024-02-12T13:11:43.156Z,2.20
2024-02-12T13:12:46.565Z,2.20
2024-02-12T13:13:50.902Z,2.00
2024-02-12T13:14:54.092Z,2.20
2024-02-12T13:15:57.018Z,2.10
2024-02-12T13:16:59.882Z,1.98
2024-02-12T13:18:02.897Z,2.10
2024-02-12T13:19:08.459Z,2.25
2024-02-12T13:20:23.440Z,2.00
2024-02-12T13:21:25.920Z,2.25
2024-02-12T13:22:28.259Z,2.15
2024-02-12T13:23:30.653Z,1.98
2024-02-12T13:24:36.152Z,2.25
2024-02-12T13:25:38.973Z,2.00
2024-02-12T13:26:42.168Z,1.95
2024-02-12T13:27:44.839Z,2.03
2024-02-12T13:28:47.479Z,1.90
2024-02-12T13:29:49.848Z,2.10
2024-02-12T13:30:53.819Z,2.03
2024-02-12T13:32:03.726Z,2.05
2024-02-12T13:33:07.631Z,2.08
2024-02-12T13:34:11.834Z,2.03
2024-02-12T13:35:16.070Z,2.25
2024-02-12T13:36:18.727Z,2.20
2024-02-12T13:37:21.047Z,2.25
2024-02-12T13:38:23.514Z,2.22
2024-02-12T13:39:29.547Z,2.03
2024-02-12T13:40:32.140Z,2.25
2024-02-12T13:41:37.248Z,2.22
2024-02-12T13:42:39.829Z,2.72
2024-02-12T13:43:42.274Z,2.50
2024-02-12T13:44:44.881Z,2.70
2024-02-12T13:45:47.212Z,2.53
2024-02-12T13:46:49.598Z,2.65
2024-02-12T13:47:54.165Z,2.55
2024-02-12T13:48:56.793Z,2.50
2024-02-12T13:49:59.731Z,2.22
2024-02-12T13:51:02.343Z,2.40
2024-02-12T13:52:04.888Z,2.28
2024-02-12T13:53:08.213Z,2.15
2024-02-12T13:54:11.280Z,2.40
2024-02-12T13:55:13.748Z,2.55
2024-02-12T13:56:16.238Z,2.40
2024-02-12T13:57:18.544Z,2.50
2024-02-12T13:58:24.147Z,2.50
2024-02-12T13:59:27.535Z,2.42
2024-02-12T14:00:47.561Z,2.63
2024-02-12T14:01:58.388Z,2.50
2024-02-12T14:03:06.483Z,2.55
2024-02-12T14:04:11.423Z,2.60
2024-02-12T14:05:14.047Z,2.67
2024-02-12T14:06:17.858Z,2.30
2024-02-12T14:07:20.353Z,2.80
2024-02-12T14:08:25.685Z,2.50
2024-02-12T14:09:28.069Z,3.00
2024-02-12T14:10:30.590Z,2.75
2024-02-12T14:11:33.425Z,2.63